Terminal Aerodrome Forecast
Issued by NWS Shreveport, LA

Home | Current Version | Previous Version | Text Only | Print | Product List | Glossary On
Versions: 1 2 3 4 5 6 7 8 9 10 11 12 13 14 15
774
FTUS44 KSHV 041134
TAFELD
TAF
KELD 041134Z 0412/0512 28007KT P6SM SKC
     FM041500 27010G16KT P6SM SKC
     FM041700 28014G22KT P6SM SCT040
     FM050000 28008KT P6SM SKC
     FM050300 34003KT P6SM SKC=

USA.gov is the U.S. government's official web portal to all federal, state and local government web resources and services.